Durham, Kansas
Current Conditions -  °F | °C
As of 9:15 PM on Monday 20 Oct 2014 (Local Time) from KEWK Reporting Station
Clear Clear  
Wind Chill: 66°   Ceiling: Unl
Heat Index: 66°   Visibility: 10mi
Dew Point: 41°   Wind: 6mph
Humidity: 40%   Direction: 50°NE
Pressure: 30.09"   Gusts: NA
Location:  38.49°N, 97.23°W
Report Text: KEWK 210215Z AUTO 05005KT 10SM CLR 19/05 A3009 RMK AO1
Loading
Personal Weather Stations






























Interactive Weather Map
Tropical Storm Tracking
New forecast layout! Learn more

10-Day Weather Forecast

Advertisements
Track Severe Weather on mobile